Time;durP1;ratioP1;P1;durP2;ratioP2;P2;SDS_P1;SDS_P2;PMS_P1;PMS_P2;Temp;Humidity;BMP_temperature;BMP_pressure;BME280_temperature;BME280_humidity;BME280_pressure;Samples;Min_cycle;Max_cycle;Signal;HPM_P1;HPM_P2
2022/01/11 00:01:52;;;;;;;3.23;2.80;;;;;;;;;;5001919;28;20260;-60
2022/01/11 00:04:20;;;;;;;5.00;2.77;;;;;;;;;;4999596;28;20212;-59
2022/01/11 00:06:50;;;;;;;3.50;3.00;;;;;;;;;;5000396;28;20200;-59
2022/01/11 00:09:23;;;;;;;2.67;2.47;;;;;;;;;;4997970;28;20209;-61
2022/01/11 00:11:51;;;;;;;6.70;2.57;;;;;;;;;;5001332;28;20454;-61
2022/01/11 00:14:18;;;;;;;6.27;3.10;;;;;;;;;;4997785;28;20323;-59
2022/01/11 00:16:46;;;;;;;3.40;1.93;;;;;;;;;;4997610;28;20229;-58
2022/01/11 00:19:14;;;;;;;6.83;2.30;;;;;;;;;;4997492;28;20208;-59
2022/01/11 00:21:46;;;;;;;2.77;2.53;;;;;;;;;;5000467;28;20201;-58
2022/01/11 00:24:29;;;;;;;2.73;2.40;;;;;;;;;;4997671;28;20223;-59
2022/01/11 00:26:56;;;;;;;3.87;2.27;;;;;;;;;;5000736;28;20216;-59
2022/01/11 00:29:23;;;;;;;2.20;1.93;;;;;;;;;;4999410;28;20208;-59
2022/01/11 00:31:53;;;;;;;3.03;2.67;;;;;;;;;;5000002;28;20204;-59
2022/01/11 00:34:22;;;;;;;5.50;2.03;;;;;;;;;;4997723;28;20209;-59
2022/01/11 00:36:49;;;;;;;2.63;2.07;;;;;;;;;;4996753;28;20224;-59
2022/01/11 00:39:16;;;;;;;2.83;2.60;;;;;;;;;;4999792;28;20587;-59
2022/01/11 00:41:44;;;;;;;7.97;2.40;;;;;;;;;;5003157;28;20258;-59
2022/01/11 00:44:12;;;;;;;2.60;1.47;;;;;;;;;;4999221;28;20211;-59
2022/01/11 00:46:40;;;;;;;3.33;2.30;;;;;;;;;;5002259;28;20203;-59
2022/01/11 00:49:09;;;;;;;3.07;1.97;;;;;;;;;;4998003;28;20222;-60
2022/01/11 00:51:36;;;;;;;2.07;1.73;;;;;;;;;;5000820;28;20709;-58
2022/01/11 00:54:03;;;;;;;4.53;2.40;;;;;;;;;;5000963;28;20240;-58
2022/01/11 00:56:30;;;;;;;4.83;2.43;;;;;;;;;;5000933;28;20229;-59
2022/01/11 00:58:57;;;;;;;2.27;2.07;;;;;;;;;;4999807;28;20223;-59
2022/01/11 01:01:24;;;;;;;2.43;2.23;;;;;;;;;;5001923;28;20220;-58
2022/01/11 01:03:51;;;;;;;2.97;2.20;;;;;;;;;;4997415;28;20212;-59
2022/01/11 01:06:19;;;;;;;1.90;1.70;;;;;;;;;;4999809;28;20215;-59
2022/01/11 01:08:46;;;;;;;5.07;1.80;;;;;;;;;;4999861;28;20204;-59
2022/01/11 01:11:13;;;;;;;2.50;1.53;;;;;;;;;;4999288;28;20725;-59
2022/01/11 01:13:40;;;;;;;4.13;2.13;;;;;;;;;;4999721;28;20261;-59
2022/01/11 01:16:08;;;;;;;4.00;2.53;;;;;;;;;;4999126;28;20279;-59
2022/01/11 01:18:36;;;;;;;2.27;2.00;;;;;;;;;;5001573;28;20200;-59
2022/01/11 01:21:03;;;;;;;3.33;2.50;;;;;;;;;;5000259;28;20215;-59
2022/01/11 01:23:32;;;;;;;2.70;2.10;;;;;;;;;;5003468;28;20214;-59
2022/01/11 01:25:59;;;;;;;3.77;2.40;;;;;;;;;;5000103;28;20216;-59
2022/01/11 01:28:26;;;;;;;4.60;2.20;;;;;;;;;;5000466;28;20744;-59
2022/01/11 01:30:55;;;;;;;4.10;2.20;;;;;;;;;;5002086;28;20215;-59
2022/01/11 01:33:22;;;;;;;1.83;1.60;;;;;;;;;;5004249;28;20211;-59
2022/01/11 01:35:54;;;;;;;1.73;1.63;;;;;;;;;;5001082;28;20207;-58
2022/01/11 01:38:24;;;;;;;2.70;2.30;;;;;;;;;;5002506;28;20227;-59
2022/01/11 01:40:57;;;;;;;2.00;1.80;;;;;;;;;;5003921;28;20211;-59
2022/01/11 01:43:24;;;;;;;2.83;1.97;;;;;;;;;;5003360;28;20683;-59
2022/01/11 01:45:52;;;;;;;4.37;2.10;;;;;;;;;;5010863;28;20203;-59
2022/01/11 01:48:21;;;;;;;3.67;1.90;;;;;;;;;;5003800;28;20243;-59
2022/01/11 01:50:50;;;;;;;5.47;1.63;;;;;;;;;;5002265;28;20224;-59
2022/01/11 01:53:17;;;;;;;3.67;2.03;;;;;;;;;;4999678;28;20255;-59
2022/01/11 01:55:46;;;;;;;3.17;2.10;;;;;;;;;;5001460;28;20209;-59
2022/01/11 01:58:15;;;;;;;2.13;1.93;;;;;;;;;;5000634;28;20375;-59
2022/01/11 02:00:46;;;;;;;2.27;2.00;;;;;;;;;;5001100;28;20263;-59
2022/01/11 02:03:15;;;;;;;1.53;1.50;;;;;;;;;;5003954;28;21720;-59
2022/01/11 02:05:42;;;;;;;5.80;2.03;;;;;;;;;;5002751;28;20200;-59
2022/01/11 02:08:10;;;;;;;3.80;1.50;;;;;;;;;;5000112;28;20219;-59
2022/01/11 02:10:38;;;;;;;2.97;1.87;;;;;;;;;;4999698;28;20207;-59
2022/01/11 02:13:05;;;;;;;2.70;2.30;;;;;;;;;;5001322;28;20212;-59
2022/01/11 02:15:33;;;;;;;3.73;2.60;;;;;;;;;;5000497;28;20212;-59
2022/01/11 02:18:08;;;;;;;2.90;1.77;;;;;;;;;;5002042;28;20773;-59
2022/01/11 02:20:36;;;;;;;2.23;1.90;;;;;;;;;;5000314;28;20196;-59
2022/01/11 02:23:03;;;;;;;5.73;2.80;;;;;;;;;;5002640;28;20561;-59
2022/01/11 02:25:31;;;;;;;2.83;2.30;;;;;;;;;;5000621;28;20213;-59
2022/01/11 02:27:58;;;;;;;2.43;1.73;;;;;;;;;;5000533;28;20204;-59
2022/01/11 02:30:25;;;;;;;2.17;1.97;;;;;;;;;;4999600;28;20572;-59
2022/01/11 02:32:53;;;;;;;2.13;2.03;;;;;;;;;;5004896;28;20218;-59
2022/01/11 02:35:20;;;;;;;2.83;2.50;;;;;;;;;;5003729;28;20208;-59
2022/01/11 02:37:49;;;;;;;3.30;1.67;;;;;;;;;;5001634;28;20252;-59
2022/01/11 02:40:16;;;;;;;1.90;1.80;;;;;;;;;;5003605;28;20242;-59
2022/01/11 02:42:43;;;;;;;1.77;1.67;;;;;;;;;;4998844;28;20611;-59
2022/01/11 02:45:14;;;;;;;1.87;1.50;;;;;;;;;;4999934;28;20216;-59
2022/01/11 02:47:41;;;;;;;2.00;1.90;;;;;;;;;;4998735;28;20223;-58
2022/01/11 02:50:09;;;;;;;2.13;1.97;;;;;;;;;;5001461;28;20229;-59
2022/01/11 02:52:36;;;;;;;3.60;2.20;;;;;;;;;;4998942;28;20226;-59
2022/01/11 02:55:07;;;;;;;3.20;2.07;;;;;;;;;;5002763;28;20216;-59
2022/01/11 02:57:34;;;;;;;6.07;1.83;;;;;;;;;;5002415;28;20323;-59
2022/01/11 03:00:02;;;;;;;6.57;1.80;;;;;;;;;;4998979;28;20282;-59
2022/01/11 03:02:29;;;;;;;2.70;2.00;;;;;;;;;;5001603;28;20208;-59
2022/01/11 03:04:56;;;;;;;3.93;1.93;;;;;;;;;;5001192;28;20304;-59
2022/01/11 03:07:23;;;;;;;5.60;1.70;;;;;;;;;;4998568;28;20200;-59
2022/01/11 03:10:01;;;;;;;2.50;1.50;;;;;;;;;;5000419;28;20223;-59
2022/01/11 03:12:30;;;;;;;2.33;1.60;;;;;;;;;;4999555;28;20202;-59
2022/01/11 03:14:57;;;;;;;2.63;2.20;;;;;;;;;;5001327;28;20224;-59
2022/01/11 03:17:25;;;;;;;3.13;1.83;;;;;;;;;;5000649;28;20219;-59
2022/01/11 03:19:53;;;;;;;1.70;1.57;;;;;;;;;;5001257;28;20217;-58
2022/01/11 03:22:20;;;;;;;1.50;1.40;;;;;;;;;;4999265;28;20243;-58
2022/01/11 03:24:47;;;;;;;1.90;1.80;;;;;;;;;;5002054;28;20215;-58
2022/01/11 03:27:15;;;;;;;1.50;1.40;;;;;;;;;;5000179;28;20737;-59
2022/01/11 03:29:43;;;;;;;3.73;1.33;;;;;;;;;;4999948;28;20204;-58
2022/01/11 03:32:12;;;;;;;2.33;1.63;;;;;;;;;;5000856;28;20251;-58
2022/01/11 03:34:41;;;;;;;2.40;1.77;;;;;;;;;;4998355;28;20226;-58
2022/01/11 03:37:10;;;;;;;3.17;2.40;;;;;;;;;;5008955;28;20223;-59
2022/01/11 03:39:37;;;;;;;1.70;1.60;;;;;;;;;;5009554;28;20656;-59
2022/01/11 03:42:05;;;;;;;3.27;1.50;;;;;;;;;;5009726;28;20295;-59
2022/01/11 03:44:32;;;;;;;2.10;1.80;;;;;;;;;;5008921;28;20207;-60
2022/01/11 03:47:00;;;;;;;1.23;1.20;;;;;;;;;;5009609;28;20224;-59
2022/01/11 03:49:28;;;;;;;2.63;1.83;;;;;;;;;;5009110;28;20217;-60
2022/01/11 03:51:55;;;;;;;2.43;1.80;;;;;;;;;;5008853;28;20212;-59
2022/01/11 03:54:26;;;;;;;1.70;1.30;;;;;;;;;;5008794;28;20238;-60
2022/01/11 03:56:53;;;;;;;1.57;1.50;;;;;;;;;;5009487;28;20299;-59
2022/01/11 03:59:20;;;;;;;1.33;1.27;;;;;;;;;;5008564;28;20222;-60
2022/01/11 04:01:47;;;;;;;2.37;2.00;;;;;;;;;;5009081;28;20588;-59
2022/01/11 04:04:16;;;;;;;5.33;1.77;;;;;;;;;;5008818;28;20227;-59
2022/01/11 04:06:43;;;;;;;3.10;1.90;;;;;;;;;;5009364;28;20212;-59
2022/01/11 04:09:11;;;;;;;4.03;1.70;;;;;;;;;;5008404;28;20212;-60
2022/01/11 04:11:38;;;;;;;1.87;1.50;;;;;;;;;;5008981;28;20298;-60
2022/01/11 04:14:06;;;;;;;1.33;1.23;;;;;;;;;;5008518;28;20208;-59
2022/01/11 04:16:33;;;;;;;1.53;1.43;;;;;;;;;;5009002;28;20651;-59
2022/01/11 04:19:00;;;;;;;1.43;1.33;;;;;;;;;;5007978;28;20614;-60
2022/01/11 04:21:28;;;;;;;2.73;1.80;;;;;;;;;;5009203;28;20216;-59
2022/01/11 04:23:55;;;;;;;2.17;1.87;;;;;;;;;;5008999;28;20212;-60
2022/01/11 04:26:23;;;;;;;2.50;1.87;;;;;;;;;;5009179;28;20220;-59
2022/01/11 04:28:50;;;;;;;2.20;1.40;;;;;;;;;;5008144;28;20262;-59
2022/01/11 04:31:17;;;;;;;2.30;2.03;;;;;;;;;;5008991;28;20239;-59
2022/01/11 04:33:45;;;;;;;2.67;1.73;;;;;;;;;;5008426;28;20210;-60
2022/01/11 04:36:13;;;;;;;1.70;1.60;;;;;;;;;;5008952;28;20299;-59
2022/01/11 04:38:42;;;;;;;1.53;1.30;;;;;;;;;;5008742;28;20224;-59
2022/01/11 04:41:09;;;;;;;1.80;1.70;;;;;;;;;;5008933;28;20220;-60
2022/01/11 04:43:36;;;;;;;2.57;1.90;;;;;;;;;;5008097;28;20211;-59
2022/01/11 04:46:03;;;;;;;2.70;2.03;;;;;;;;;;5008791;28;20208;-60
2022/01/11 04:48:32;;;;;;;6.97;2.20;;;;;;;;;;5008431;28;20202;-59
2022/01/11 04:51:00;;;;;;;2.27;1.53;;;;;;;;;;5008371;28;20242;-59
2022/01/11 04:53:27;;;;;;;2.77;1.80;;;;;;;;;;5008380;28;20329;-59
2022/01/11 04:55:56;;;;;;;3.40;2.27;;;;;;;;;;5008402;28;20266;-59
2022/01/11 04:58:23;;;;;;;3.83;1.93;;;;;;;;;;5008298;28;20229;-60
2022/01/11 05:00:50;;;;;;;8.70;2.57;;;;;;;;;;5002360;28;20262;-59
2022/01/11 05:03:18;;;;;;;2.53;2.20;;;;;;;;;;5007938;28;20206;-59
2022/01/11 05:05:45;;;;;;;2.37;2.20;;;;;;;;;;5012338;28;20212;-59
2022/01/11 05:08:12;;;;;;;2.53;2.33;;;;;;;;;;5012215;28;20634;-59
2022/01/11 05:10:42;;;;;;;3.80;2.77;;;;;;;;;;5012191;28;20563;-60
2022/01/11 05:13:10;;;;;;;3.67;2.27;;;;;;;;;;5011777;28;20224;-59
2022/01/11 05:15:37;;;;;;;3.77;2.30;;;;;;;;;;5000461;28;20725;-60
2022/01/11 05:18:05;;;;;;;4.40;2.37;;;;;;;;;;5012088;28;20710;-59
2022/01/11 05:20:32;;;;;;;7.90;2.37;;;;;;;;;;5011731;28;20215;-59
2022/01/11 05:22:59;;;;;;;6.37;2.67;;;;;;;;;;5011781;28;20727;-59
2022/01/11 05:25:26;;;;;;;3.50;2.70;;;;;;;;;;5010437;28;20211;-59
2022/01/11 05:27:53;;;;;;;4.43;2.77;;;;;;;;;;5012162;28;20567;-59
2022/01/11 05:30:22;;;;;;;4.63;3.17;;;;;;;;;;5011215;28;20215;-59
2022/01/11 05:32:49;;;;;;;3.50;2.37;;;;;;;;;;5012208;28;20271;-60
2022/01/11 05:35:18;;;;;;;2.83;2.63;;;;;;;;;;5012277;28;20208;-59
2022/01/11 05:37:45;;;;;;;4.23;2.93;;;;;;;;;;5011924;28;20211;-60
2022/01/11 05:40:12;;;;;;;6.07;3.77;;;;;;;;;;4996223;28;20208;-60
2022/01/11 05:42:40;;;;;;;5.07;3.97;;;;;;;;;;5011577;28;20845;-60
2022/01/11 05:45:08;;;;;;;3.10;2.57;;;;;;;;;;5011836;28;20204;-60
2022/01/11 05:47:36;;;;;;;3.70;2.43;;;;;;;;;;5011457;28;20295;-60
2022/01/11 05:50:04;;;;;;;5.47;2.93;;;;;;;;;;5011496;28;20228;-60
2022/01/11 05:52:31;;;;;;;6.37;3.40;;;;;;;;;;5011267;28;20248;-59
2022/01/11 05:54:58;;;;;;;4.83;2.53;;;;;;;;;;5011811;28;20690;-59
2022/01/11 05:57:26;;;;;;;3.70;2.70;;;;;;;;;;5011661;28;20204;-59
2022/01/11 05:59:53;;;;;;;3.07;2.80;;;;;;;;;;5011078;28;20260;-59
2022/01/11 06:02:20;;;;;;;2.93;2.63;;;;;;;;;;5001464;28;20207;-59
2022/01/11 06:04:48;;;;;;;3.03;2.63;;;;;;;;;;5010336;28;20208;-59
2022/01/11 06:07:15;;;;;;;6.73;3.00;;;;;;;;;;5007558;28;20212;-60
2022/01/11 06:09:42;;;;;;;4.27;2.83;;;;;;;;;;5007702;28;20620;-59
2022/01/11 06:12:10;;;;;;;4.10;2.73;;;;;;;;;;5007855;28;20307;-60
2022/01/11 06:14:37;;;;;;;3.03;2.50;;;;;;;;;;5008312;28;20634;-59
2022/01/11 06:17:04;;;;;;;3.23;2.93;;;;;;;;;;5008195;28;20211;-60
2022/01/11 06:19:31;;;;;;;3.13;2.67;;;;;;;;;;5008923;28;20436;-60
2022/01/11 06:22:00;;;;;;;5.83;3.10;;;;;;;;;;5009406;28;20248;-60
2022/01/11 06:24:27;;;;;;;4.27;2.63;;;;;;;;;;5008932;28;20208;-60
2022/01/11 06:26:54;;;;;;;6.47;3.33;;;;;;;;;;5005595;28;20254;-60
2022/01/11 06:29:21;;;;;;;4.53;3.67;;;;;;;;;;5007988;28;20212;-59
2022/01/11 06:31:59;;;;;;;5.37;3.63;;;;;;;;;;5008932;28;20212;-59
2022/01/11 06:34:26;;;;;;;8.20;2.93;;;;;;;;;;5001514;28;20208;-59
2022/01/11 06:36:53;;;;;;;6.70;2.90;;;;;;;;;;5005420;28;20266;-59
2022/01/11 06:39:22;;;;;;;6.83;3.47;;;;;;;;;;5009373;28;20221;-59
2022/01/11 06:41:49;;;;;;;2.50;2.30;;;;;;;;;;5010000;28;20224;-60
2022/01/11 06:44:16;;;;;;;5.67;3.00;;;;;;;;;;5009817;28;20625;-60
2022/01/11 06:46:43;;;;;;;2.80;2.60;;;;;;;;;;5010274;28;20851;-60
2022/01/11 06:49:10;;;;;;;5.43;2.87;;;;;;;;;;5009779;28;20206;-61
2022/01/11 06:51:37;;;;;;;3.80;2.63;;;;;;;;;;5005930;28;20291;-60
2022/01/11 06:54:04;;;;;;;5.07;3.27;;;;;;;;;;5007759;28;20240;-60
2022/01/11 06:56:32;;;;;;;10.33;3.77;;;;;;;;;;5010418;28;20209;-60
2022/01/11 06:58:59;;;;;;;5.90;2.50;;;;;;;;;;5001936;28;20244;-60
2022/01/11 07:01:26;;;;;;;4.13;2.90;;;;;;;;;;5004411;28;20560;-60
2022/01/11 07:03:54;;;;;;;6.63;3.30;;;;;;;;;;5010238;28;20991;-60
2022/01/11 07:06:21;;;;;;;6.47;3.13;;;;;;;;;;5010230;28;20666;-62
2022/01/11 07:08:48;;;;;;;5.20;2.47;;;;;;;;;;5010077;28;20263;-59
2022/01/11 07:11:15;;;;;;;8.47;3.53;;;;;;;;;;5010174;28;20729;-59
2022/01/11 07:13:43;;;;;;;4.00;2.37;;;;;;;;;;5010389;28;20219;-61
2022/01/11 07:16:10;;;;;;;5.33;3.17;;;;;;;;;;5010221;28;20229;-61
2022/01/11 07:18:37;;;;;;;10.40;3.57;;;;;;;;;;5009336;28;20767;-58
2022/01/11 07:21:04;;;;;;;4.13;2.60;;;;;;;;;;5009872;28;20212;-58
2022/01/11 07:23:31;;;;;;;4.43;2.83;;;;;;;;;;5009822;28;20586;-59
2022/01/11 07:25:58;;;;;;;3.83;2.73;;;;;;;;;;5009277;28;20217;-59
2022/01/11 07:28:26;;;;;;;2.73;2.47;;;;;;;;;;5010014;28;20272;-59
2022/01/11 07:30:54;;;;;;;4.27;3.00;;;;;;;;;;5009655;28;20667;-59
2022/01/11 07:33:22;;;;;;;5.07;3.70;;;;;;;;;;5009653;28;20216;-59
2022/01/11 07:35:49;;;;;;;5.90;3.07;;;;;;;;;;5009581;28;20212;-59
2022/01/11 07:38:16;;;;;;;2.97;2.60;;;;;;;;;;5009620;28;20268;-59
2022/01/11 07:40:43;;;;;;;7.47;2.93;;;;;;;;;;5009825;28;20212;-59
2022/01/11 07:43:10;;;;;;;3.83;2.50;;;;;;;;;;5009551;28;20215;-59
2022/01/11 07:45:37;;;;;;;5.80;3.00;;;;;;;;;;5009356;28;20206;-59
2022/01/11 07:48:06;;;;;;;5.77;3.13;;;;;;;;;;5009524;28;20227;-59
2022/01/11 07:50:33;;;;;;;4.80;3.30;;;;;;;;;;5009370;28;20232;-60
2022/01/11 07:53:00;;;;;;;3.77;2.80;;;;;;;;;;5009506;28;20255;-60
2022/01/11 07:55:27;;;;;;;7.47;3.53;;;;;;;;;;4996989;28;20240;-59
2022/01/11 07:57:54;;;;;;;5.63;3.47;;;;;;;;;;4992874;28;20217;-60
2022/01/11 08:00:21;;;;;;;5.83;2.93;;;;;;;;;;4990403;28;20233;-60
2022/01/11 08:02:48;;;;;;;4.60;2.90;;;;;;;;;;4994620;28;20306;-60
2022/01/11 08:05:18;;;;;;;3.87;1.97;;;;;;;;;;5009448;28;20212;-60
2022/01/11 08:07:45;;;;;;;3.20;2.80;;;;;;;;;;5004640;28;20220;-60
2022/01/11 08:10:16;;;;;;;3.07;2.60;;;;;;;;;;5004317;28;20208;-60
2022/01/11 08:12:44;;;;;;;6.57;3.03;;;;;;;;;;5009365;28;20736;-60
2022/01/11 08:15:11;;;;;;;7.90;3.53;;;;;;;;;;5009207;28;20220;-59
2022/01/11 08:17:38;;;;;;;7.47;3.83;;;;;;;;;;5009135;28;20248;-60
2022/01/11 08:20:05;;;;;;;4.57;3.20;;;;;;;;;;5008973;28;20788;-61
2022/01/11 08:22:33;;;;;;;4.90;2.97;;;;;;;;;;5009024;28;20215;-60
2022/01/11 08:25:01;;;;;;;5.13;2.60;;;;;;;;;;5008871;28;20211;-60
2022/01/11 08:27:28;;;;;;;11.33;3.67;;;;;;;;;;5009115;28;20694;-60
2022/01/11 08:29:55;;;;;;;7.77;3.20;;;;;;;;;;5009028;28;20299;-61
2022/01/11 08:32:22;;;;;;;9.00;3.53;;;;;;;;;;5008979;28;20215;-60
2022/01/11 08:34:49;;;;;;;3.10;2.90;;;;;;;;;;5008944;28;20222;-60
2022/01/11 08:37:16;;;;;;;7.43;3.73;;;;;;;;;;5009695;28;20209;-60
2022/01/11 08:39:44;;;;;;;3.23;2.30;;;;;;;;;;5013099;28;20651;-60
2022/01/11 08:42:13;;;;;;;4.50;2.67;;;;;;;;;;5013096;28;20236;-60
2022/01/11 08:44:40;;;;;;;5.37;3.10;;;;;;;;;;5013004;28;20208;-60
2022/01/11 08:47:07;;;;;;;3.73;2.53;;;;;;;;;;5013057;28;20208;-61
2022/01/11 08:49:34;;;;;;;6.50;3.33;;;;;;;;;;5012916;28;20286;-60
2022/01/11 08:52:01;;;;;;;3.40;2.30;;;;;;;;;;5012712;28;20687;-60
2022/01/11 08:54:28;;;;;;;6.70;2.77;;;;;;;;;;5012748;28;20498;-66
2022/01/11 08:56:57;;;;;;;5.13;3.80;;;;;;;;;;5012798;28;20740;-60
2022/01/11 08:59:26;;;;;;;6.53;3.37;;;;;;;;;;5010834;28;20607;-60
2022/01/11 09:01:53;;;;;;;3.47;3.00;;;;;;;;;;5012279;28;20657;-61
2022/01/11 09:04:21;;;;;;;4.10;2.70;;;;;;;;;;5011566;28;20212;-60
2022/01/11 09:06:48;;;;;;;2.97;2.63;;;;;;;;;;5011469;28;20208;-60
2022/01/11 09:09:15;;;;;;;3.77;2.70;;;;;;;;;;5011483;28;20278;-60
2022/01/11 09:11:43;;;;;;;10.87;3.73;;;;;;;;;;5011593;28;20339;-61
2022/01/11 09:14:11;;;;;;;10.07;4.07;;;;;;;;;;5011509;28;20212;-60
2022/01/11 09:16:38;;;;;;;5.63;3.30;;;;;;;;;;5011194;28;20247;-60
2022/01/11 09:19:06;;;;;;;7.13;3.60;;;;;;;;;;5011206;28;20233;-61
2022/01/11 09:21:33;;;;;;;9.47;5.20;;;;;;;;;;5011125;28;20221;-61
2022/01/11 09:24:00;;;;;;;6.63;3.87;;;;;;;;;;5011197;28;20267;-60
2022/01/11 09:26:27;;;;;;;5.27;2.90;;;;;;;;;;5011505;28;20209;-61
2022/01/11 09:28:54;;;;;;;2.87;2.63;;;;;;;;;;5010978;28;20212;-61
2022/01/11 09:31:22;;;;;;;3.90;2.90;;;;;;;;;;5010958;28;20217;-60
2022/01/11 09:33:50;;;;;;;7.97;2.63;;;;;;;;;;5011055;28;20742;-60
2022/01/11 09:36:17;;;;;;;4.67;3.00;;;;;;;;;;5010859;28;20757;-60
2022/01/11 09:38:45;;;;;;;4.30;3.27;;;;;;;;;;5011026;28;20212;-60
2022/01/11 09:41:12;;;;;;;3.93;2.57;;;;;;;;;;5010967;28;20237;-61
2022/01/11 09:43:39;;;;;;;4.87;2.53;;;;;;;;;;5010988;28;20255;-60
2022/01/11 09:46:06;;;;;;;5.10;3.30;;;;;;;;;;5010776;28;20658;-60
2022/01/11 09:48:35;;;;;;;4.47;3.17;;;;;;;;;;5010193;28;20562;-61
2022/01/11 09:51:02;;;;;;;3.13;2.73;;;;;;;;;;5010267;28;20231;-61
2022/01/11 09:53:29;;;;;;;4.37;3.20;;;;;;;;;;5010528;28;20241;-61
2022/01/11 09:55:56;;;;;;;4.47;2.93;;;;;;;;;;5010780;28;20264;-61
2022/01/11 09:58:24;;;;;;;6.20;2.97;;;;;;;;;;5010534;28;20219;-60
2022/01/11 10:00:51;;;;;;;10.23;3.63;;;;;;;;;;5010262;28;20238;-60
2022/01/11 10:03:18;;;;;;;5.93;3.23;;;;;;;;;;5010265;28;20235;-61
2022/01/11 10:05:47;;;;;;;3.03;2.47;;;;;;;;;;5010359;28;20647;-60
2022/01/11 10:08:25;;;;;;;5.20;3.13;;;;;;;;;;5010547;28;20213;-61
2022/01/11 10:10:53;;;;;;;5.50;2.77;;;;;;;;;;5010206;28;20303;-60
2022/01/11 10:13:30;;;;;;;4.23;2.47;;;;;;;;;;5010413;28;20217;-60
2022/01/11 10:15:57;;;;;;;4.50;2.93;;;;;;;;;;5010535;28;20204;-60
2022/01/11 10:18:42;;;;;;;2.27;1.87;;;;;;;;;;5010278;28;20221;-60
2022/01/11 10:21:24;;;;;;;4.10;2.30;;;;;;;;;;5010016;28;20233;-60
2022/01/11 10:23:53;;;;;;;5.10;2.43;;;;;;;;;;5010058;28;20570;-61
2022/01/11 10:26:34;;;;;;;9.13;3.37;;;;;;;;;;5010414;28;20209;-64
2022/01/11 10:29:01;;;;;;;6.20;3.30;;;;;;;;;;5010216;28;20213;-61
2022/01/11 10:31:34;;;;;;;3.40;3.10;;;;;;;;;;5010371;28;20214;-61
2022/01/11 10:34:02;;;;;;;6.07;3.13;;;;;;;;;;5010588;28;20220;-60
2022/01/11 10:36:44;;;;;;;4.97;3.27;;;;;;;;;;5010415;28;20218;-60
2022/01/11 10:39:29;;;;;;;6.63;2.97;;;;;;;;;;5004135;28;21265;-61
2022/01/11 10:41:57;;;;;;;4.87;3.17;;;;;;;;;;5006172;28;20230;-61
2022/01/11 10:44:43;;;;;;;6.73;2.93;;;;;;;;;;5009478;28;20299;-60
2022/01/11 10:47:10;;;;;;;6.40;2.93;;;;;;;;;;4990398;28;20220;-60
2022/01/11 10:49:37;;;;;;;7.43;3.10;;;;;;;;;;4990292;28;20232;-61
2022/01/11 10:52:17;;;;;;;4.60;2.67;;;;;;;;;;4989707;28;20759;-60
2022/01/11 10:54:45;;;;;;;5.27;3.17;;;;;;;;;;4990453;28;20216;-61
2022/01/11 10:57:17;;;;;;;5.47;3.97;;;;;;;;;;4990405;28;20210;-60
2022/01/11 10:59:44;;;;;;;7.80;3.27;;;;;;;;;;4990414;28;20723;-61
2022/01/11 11:02:14;;;;;;;6.00;3.50;;;;;;;;;;4990343;28;20275;-61
2022/01/11 11:04:41;;;;;;;2.93;2.73;;;;;;;;;;4990225;28;20209;-61
2022/01/11 11:07:11;;;;;;;5.17;2.40;;;;;;;;;;4990018;28;20687;-60
2022/01/11 11:09:46;;;;;;;5.10;3.23;;;;;;;;;;4999455;28;20240;-61
2022/01/11 11:12:16;;;;;;;6.10;3.43;;;;;;;;;;5009555;28;20289;-60
2022/01/11 11:14:51;;;;;;;3.33;3.07;;;;;;;;;;5009684;28;20813;-61
2022/01/11 11:17:28;;;;;;;7.20;3.50;;;;;;;;;;5009221;28;20218;-61
2022/01/11 11:20:00;;;;;;;5.73;3.80;;;;;;;;;;5001272;28;20229;-61
2022/01/11 11:22:27;;;;;;;6.30;3.30;;;;;;;;;;4990575;28;20213;-61
2022/01/11 11:24:56;;;;;;;7.07;3.10;;;;;;;;;;4990287;28;20218;-60
2022/01/11 11:27:24;;;;;;;8.23;4.03;;;;;;;;;;4990039;28;20213;-61
2022/01/11 11:29:51;;;;;;;5.57;3.43;;;;;;;;;;4990250;28;20209;-61
2022/01/11 11:32:19;;;;;;;4.67;3.77;;;;;;;;;;4990086;28;20214;-60
2022/01/11 11:34:49;;;;;;;3.60;2.93;;;;;;;;;;4990201;28;20677;-60
2022/01/11 11:37:18;;;;;;;4.07;3.27;;;;;;;;;;4989843;28;20766;-61
2022/01/11 11:39:46;;;;;;;7.83;4.53;;;;;;;;;;5000637;28;20216;-60
2022/01/11 11:42:17;;;;;;;11.17;4.60;;;;;;;;;;5009738;28;20304;-60
2022/01/11 11:44:46;;;;;;;6.93;3.67;;;;;;;;;;5009756;28;20355;-61
2022/01/11 11:47:13;;;;;;;7.23;3.43;;;;;;;;;;5009398;28;20204;-60
2022/01/11 11:49:45;;;;;;;6.97;3.60;;;;;;;;;;5009295;28;20229;-60
2022/01/11 11:52:20;;;;;;;6.77;3.47;;;;;;;;;;5009489;28;20220;-61
2022/01/11 11:54:51;;;;;;;6.00;3.53;;;;;;;;;;5009299;28;20658;-60
2022/01/11 11:57:20;;;;;;;6.87;4.20;;;;;;;;;;5009118;28;20220;-60
2022/01/11 11:59:52;;;;;;;19.37;8.80;;;;;;;;;;5009251;28;20220;-60
2022/01/11 12:02:43;;;;;;;8.83;5.23;;;;;;;;;;5009145;28;21007;-62
2022/01/11 12:05:11;;;;;;;4.53;3.23;;;;;;;;;;4989922;28;20224;-61
2022/01/11 12:07:41;;;;;;;17.90;8.43;;;;;;;;;;5008594;28;20205;-62
2022/01/11 12:10:12;;;;;;;6.27;4.27;;;;;;;;;;5009094;28;20248;-61
2022/01/11 12:12:41;;;;;;;5.07;3.50;;;;;;;;;;5008181;28;20212;-64
2022/01/11 12:15:34;;;;;;;4.40;3.47;;;;;;;;;;5005644;28;20209;-63
2022/01/11 12:18:17;;;;;;;6.00;4.23;;;;;;;;;;4985649;28;20245;-63
2022/01/11 12:20:45;;;;;;;11.17;5.00;;;;;;;;;;5005209;28;20603;-63
2022/01/11 12:23:20;;;;;;;3.43;2.97;;;;;;;;;;5004213;28;20205;-63
2022/01/11 12:25:48;;;;;;;6.87;3.63;;;;;;;;;;5004419;28;20219;-70
2022/01/11 12:28:17;;;;;;;3.13;2.70;;;;;;;;;;4985198;28;20213;-71
2022/01/11 12:30:45;;;;;;;3.93;2.47;;;;;;;;;;4985313;28;20209;-71
2022/01/11 12:33:17;;;;;;;3.67;3.03;;;;;;;;;;4998174;28;20209;-71
2022/01/11 12:35:54;;;;;;;3.47;3.17;;;;;;;;;;5004418;28;20213;-69
2022/01/11 12:38:22;;;;;;;15.37;6.80;;;;;;;;;;4992815;28;20212;-63
2022/01/11 12:40:49;;;;;;;24.20;7.40;;;;;;;;;;5003242;28;20232;-62
2022/01/11 12:43:36;;;;;;;4.17;3.17;;;;;;;;;;4984858;28;20267;-70
2022/01/11 12:46:05;;;;;;;5.37;2.77;;;;;;;;;;5003304;28;20240;-63
2022/01/11 12:48:57;;;;;;;6.30;2.50;;;;;;;;;;5004300;28;20264;-62
2022/01/11 12:51:36;;;;;;;3.80;2.53;;;;;;;;;;4989255;28;20336;-62
2022/01/11 12:54:15;;;;;;;4.27;2.90;;;;;;;;;;5004264;28;20339;-62
2022/01/11 12:56:42;;;;;;;8.30;2.67;;;;;;;;;;4997518;28;20201;-61
2022/01/11 12:59:11;;;;;;;10.87;3.70;;;;;;;;;;5004697;28;20217;-61
2022/01/11 13:01:38;;;;;;;3.87;2.70;;;;;;;;;;5003711;28;20234;-62
2022/01/11 13:04:05;;;;;;;2.50;1.60;;;;;;;;;;4991033;28;20742;-61
2022/01/11 13:06:33;;;;;;;9.63;4.63;;;;;;;;;;4987427;28;20217;-61
2022/01/11 13:09:02;;;;;;;9.87;3.83;;;;;;;;;;5004352;28;20212;-61
2022/01/11 13:11:29;;;;;;;5.20;2.20;;;;;;;;;;5004269;28;21056;-61
2022/01/11 13:14:17;;;;;;;3.53;2.00;;;;;;;;;;5004109;28;20217;-62
2022/01/11 13:16:46;;;;;;;2.57;2.37;;;;;;;;;;5004381;28;20742;-61
2022/01/11 13:19:14;;;;;;;1.80;1.67;;;;;;;;;;5004595;28;20205;-61
2022/01/11 13:21:41;;;;;;;3.13;2.70;;;;;;;;;;5004507;28;20295;-61
2022/01/11 13:24:22;;;;;;;2.20;2.00;;;;;;;;;;5004833;28;20213;-61
2022/01/11 13:26:50;;;;;;;3.90;2.50;;;;;;;;;;5005388;28;20364;-61
2022/01/11 13:29:17;;;;;;;3.97;2.13;;;;;;;;;;5007374;28;20704;-61
2022/01/11 13:31:49;;;;;;;3.33;2.87;;;;;;;;;;5007853;28;20212;-62
2022/01/11 13:34:16;;;;;;;3.17;2.53;;;;;;;;;;5007956;28;20237;-62
2022/01/11 13:36:47;;;;;;;5.10;2.10;;;;;;;;;;5007983;28;20275;-61
2022/01/11 13:39:15;;;;;;;3.13;2.20;;;;;;;;;;4998200;28;20332;-62
2022/01/11 13:41:43;;;;;;;3.67;2.20;;;;;;;;;;4988044;28;20260;-61
2022/01/11 13:44:11;;;;;;;3.57;2.00;;;;;;;;;;5002088;28;20224;-61
2022/01/11 13:46:40;;;;;;;2.57;2.37;;;;;;;;;;5007591;28;20263;-61
2022/01/11 13:49:13;;;;;;;1.87;1.67;;;;;;;;;;4991586;28;20205;-61
2022/01/11 13:51:40;;;;;;;3.63;2.30;;;;;;;;;;5006881;28;20262;-62
2022/01/11 13:54:08;;;;;;;4.10;2.13;;;;;;;;;;5006799;28;20232;-61
2022/01/11 13:56:37;;;;;;;2.53;2.17;;;;;;;;;;5001756;28;20260;-62
2022/01/11 13:59:05;;;;;;;2.97;2.57;;;;;;;;;;5000196;28;20221;-62
2022/01/11 14:01:32;;;;;;;3.80;2.23;;;;;;;;;;5006930;28;20797;-61
2022/01/11 14:04:07;;;;;;;5.50;2.40;;;;;;;;;;5006903;28;20223;-61
2022/01/11 14:06:42;;;;;;;2.87;2.50;;;;;;;;;;5006240;28;20212;-61
2022/01/11 14:09:15;;;;;;;3.70;2.03;;;;;;;;;;5006099;28;20385;-63
2022/01/11 14:11:51;;;;;;;3.53;2.43;;;;;;;;;;4991982;28;20645;-61
2022/01/11 14:14:23;;;;;;;4.30;2.57;;;;;;;;;;4987867;28;20609;-61
2022/01/11 14:16:51;;;;;;;3.47;2.47;;;;;;;;;;4993130;28;20881;-61
2022/01/11 14:19:18;;;;;;;5.30;1.93;;;;;;;;;;5006021;28;20299;-61
2022/01/11 14:21:54;;;;;;;2.10;1.90;;;;;;;;;;5005858;28;20232;-60
2022/01/11 14:24:21;;;;;;;1.93;1.83;;;;;;;;;;5005401;28;20213;-62
2022/01/11 14:26:48;;;;;;;2.23;1.97;;;;;;;;;;5005798;28;20724;-63
2022/01/11 14:29:19;;;;;;;2.80;2.60;;;;;;;;;;5004984;28;20220;-61
2022/01/11 14:32:00;;;;;;;2.03;1.80;;;;;;;;;;5005774;28;20619;-61
2022/01/11 14:34:28;;;;;;;1.83;1.73;;;;;;;;;;5006348;28;20212;-61
2022/01/11 14:36:57;;;;;;;3.07;2.17;;;;;;;;;;5005737;28;20217;-61
2022/01/11 14:39:24;;;;;;;3.00;1.90;;;;;;;;;;5005676;28;20201;-61
2022/01/11 14:41:51;;;;;;;3.30;2.23;;;;;;;;;;5006079;28;20332;-61
2022/01/11 14:44:19;;;;;;;2.87;1.97;;;;;;;;;;5004598;28;20205;-61
2022/01/11 14:46:47;;;;;;;6.63;2.50;;;;;;;;;;5006304;28;21075;-61
2022/01/11 14:49:16;;;;;;;1.57;1.47;;;;;;;;;;5005818;28;21052;-61
2022/01/11 14:51:45;;;;;;;1.97;1.87;;;;;;;;;;5006659;28;20216;-61
2022/01/11 14:54:18;;;;;;;2.87;2.17;;;;;;;;;;5005772;28;20244;-62